Time;durP1;ratioP1;P1;durP2;ratioP2;P2;SDS_P1;SDS_P2;PMS_P1;PMS_P2;Temp;Humidity;BMP_temperature;BMP_pressure;BME280_temperature;BME280_humidity;BME280_pressure;Samples;Min_cycle;Max_cycle;Signal;HPM_P1;HPM_P2
2022/11/30 00:00:20;;;;;;;41.55;17.38;;;;;;;-0.04;76.74;99280.66;5047903;28;20478;-79
2022/11/30 00:02:48;;;;;;;44.03;18.63;;;;;;;-0.02;76.40;99284.00;5048602;28;20025;-80
2022/11/30 00:05:13;;;;;;;38.22;16.75;;;;;;;0.03;76.44;99282.53;5047433;28;20033;-79
2022/11/30 00:07:39;;;;;;;43.47;18.35;;;;;;;0.04;76.78;99281.50;5049661;28;20021;-79
2022/11/30 00:10:05;;;;;;;40.38;17.60;;;;;;;0.04;76.50;99287.72;5050134;28;20028;-78
2022/11/30 00:12:30;;;;;;;46.40;19.60;;;;;;;0.05;76.45;99292.06;5052232;28;20037;-80
2022/11/30 00:14:56;;;;;;;45.40;19.35;;;;;;;0.06;76.65;99296.44;5051808;28;20082;-79
2022/11/30 00:17:21;;;;;;;47.03;19.65;;;;;;;0.07;76.36;99289.19;5053111;28;20029;-80
2022/11/30 00:19:47;;;;;;;47.05;20.13;;;;;;;0.04;76.68;99287.72;5053213;28;20033;-78
2022/11/30 00:22:12;;;;;;;53.85;21.60;;;;;;;0.06;76.80;99292.91;5051212;28;20052;-78
2022/11/30 00:24:37;;;;;;;56.35;25.27;;;;;;;0.06;76.29;99291.03;5052132;28;20035;-79
2022/11/30 00:27:03;;;;;;;41.28;18.15;;;;;;;0.08;76.67;99288.16;5052240;28;20070;-78
2022/11/30 00:29:28;;;;;;;47.88;20.00;;;;;;;0.07;76.67;99286.50;5052271;28;20032;-78
2022/11/30 00:31:53;;;;;;;46.30;19.05;;;;;;;0.07;76.74;99297.28;5052256;28;20132;-78
2022/11/30 00:34:19;;;;;;;45.25;18.98;;;;;;;0.07;76.48;99295.41;5051908;28;20029;-78
2022/11/30 00:36:44;;;;;;;45.13;19.73;;;;;;;0.10;76.83;99294.16;5052136;28;20470;-78
2022/11/30 00:39:10;;;;;;;46.92;18.98;;;;;;;0.11;76.50;99295.84;5051798;28;20087;-78
2022/11/30 00:41:35;;;;;;;47.55;19.75;;;;;;;0.12;76.58;99298.31;5052125;28;20055;-78
2022/11/30 00:44:00;;;;;;;40.35;18.33;;;;;;;0.13;76.42;99293.75;5051207;28;20470;-78
2022/11/30 00:46:26;;;;;;;43.50;18.75;;;;;;;0.13;77.12;99293.75;5052133;28;20017;-78
2022/11/30 00:48:51;;;;;;;42.22;18.85;;;;;;;0.10;76.37;99302.25;5051693;28;20028;-78
2022/11/30 00:51:18;;;;;;;42.70;18.48;;;;;;;0.11;76.50;99290.44;5050390;28;20033;-78
2022/11/30 00:53:43;;;;;;;44.13;19.15;;;;;;;0.14;76.91;99301.63;5051176;28;20423;-78
2022/11/30 00:56:09;;;;;;;47.13;18.83;;;;;;;0.17;76.35;99307.66;5051607;28;20091;-78
2022/11/30 00:58:35;;;;;;;47.20;20.98;;;;;;;0.20;76.62;99315.34;5050123;28;20071;-78
2022/11/30 01:01:00;;;;;;;45.30;20.17;;;;;;;0.22;76.77;99308.69;5051706;28;20033;-78
2022/11/30 01:03:26;;;;;;;53.60;20.67;;;;;;;0.26;76.74;99317.22;5048802;28;20029;-78
2022/11/30 01:05:51;;;;;;;47.83;19.27;;;;;;;0.24;77.09;99314.69;5050750;28;20086;-78
2022/11/30 01:08:17;;;;;;;45.35;18.80;;;;;;;0.21;76.45;99314.28;5051138;28;20033;-78
2022/11/30 01:10:43;;;;;;;49.28;19.80;;;;;;;0.20;76.55;99320.72;5050123;28;20366;-78
2022/11/30 01:13:10;;;;;;;46.55;20.02;;;;;;;0.14;76.65;99309.72;5050735;28;20036;-78
2022/11/30 01:15:38;;;;;;;47.03;18.75;;;;;;;0.14;76.33;99311.59;5051006;28;20029;-78
2022/11/30 01:18:04;;;;;;;44.42;19.42;;;;;;;0.15;76.63;99315.97;5051123;28;20389;-78
2022/11/30 01:20:29;;;;;;;48.63;20.27;;;;;;;0.16;76.27;99314.94;5050467;28;20032;-78
2022/11/30 01:22:55;;;;;;;50.90;18.92;;;;;;;0.18;76.80;99306.63;5050494;28;20075;-78
2022/11/30 01:25:20;;;;;;;50.67;20.48;;;;;;;0.19;76.94;99308.28;5050731;28;20684;-78
2022/11/30 01:27:49;;;;;;;51.85;21.45;;;;;;;0.16;76.68;99304.13;5050978;28;20040;-78
2022/11/30 01:30:15;;;;;;;49.53;19.85;;;;;;;0.15;76.59;99305.16;5050188;28;20064;-78
2022/11/30 01:32:40;;;;;;;51.65;19.70;;;;;;;0.13;76.64;99312.63;5051551;28;20118;-78
2022/11/30 01:35:06;;;;;;;48.55;18.50;;;;;;;0.12;76.95;99302.88;5051211;28;20040;-78
2022/11/30 01:37:32;;;;;;;42.72;17.67;;;;;;;0.08;76.88;99302.44;5051205;28;20025;-78
2022/11/30 01:39:57;;;;;;;41.70;17.13;;;;;;;0.08;76.76;99307.84;5051175;28;20469;-78
2022/11/30 01:42:22;;;;;;;45.83;18.70;;;;;;;0.07;76.21;99303.50;5051387;28;20102;-78
2022/11/30 01:44:51;;;;;;;42.72;17.92;;;;;;;0.07;76.45;99297.28;5051091;28;20029;-78
2022/11/30 01:47:21;;;;;;;45.70;19.02;;;;;;;0.07;76.57;99306.19;5051727;28;20393;-78
2022/11/30 01:49:52;;;;;;;50.45;20.52;;;;;;;0.07;76.74;99308.06;5051653;28;20411;-78
2022/11/30 01:52:24;;;;;;;44.03;19.50;;;;;;;0.05;76.90;99308.25;5051467;28;20072;-78
2022/11/30 01:54:55;;;;;;;54.28;20.27;;;;;;;0.06;76.67;99303.72;5051700;28;20024;-78
2022/11/30 01:57:30;;;;;;;50.42;19.60;;;;;;;0.10;76.86;99304.97;5051579;28;20488;-78
2022/11/30 01:59:59;;;;;;;47.78;18.40;;;;;;;0.12;77.32;99306.41;5051792;28;20021;-78
2022/11/30 02:02:39;;;;;;;43.05;17.92;;;;;;;0.11;77.05;99299.34;5051227;28;20024;-78
2022/11/30 02:05:05;;;;;;;46.28;18.73;;;;;;;0.10;76.70;99297.69;5051286;28;20029;-78
2022/11/30 02:07:30;;;;;;;47.50;18.98;;;;;;;0.11;76.71;99298.53;5051430;28;20036;-78
2022/11/30 02:09:56;;;;;;;46.78;17.83;;;;;;;0.09;76.68;99304.13;5050904;28;20025;-78
2022/11/30 02:12:47;;;;;;;43.53;17.75;;;;;;;0.09;76.97;99306.00;5051562;28;20499;-78
2022/11/30 02:15:20;;;;;;;50.05;19.67;;;;;;;0.09;76.69;99298.72;5042300;28;20033;-78
2022/11/30 02:17:57;;;;;;;47.97;18.15;;;;;;;0.09;76.99;99306.81;5051515;28;20473;-78
2022/11/30 02:20:41;;;;;;;52.10;20.42;;;;;;;0.13;77.26;99309.94;5053989;28;20037;-78
2022/11/30 02:23:09;;;;;;;48.10;20.33;;;;;;;0.10;76.83;99311.16;5051395;28;20110;-78
2022/11/30 02:25:41;;;;;;;48.00;19.58;;;;;;;0.12;76.88;99308.28;5048772;28;20607;-78
2022/11/30 02:28:34;;;;;;;48.80;19.65;;;;;;;0.10;76.95;99303.06;5049931;28;20044;-78
2022/11/30 02:31:04;;;;;;;46.75;17.88;;;;;;;0.10;76.65;99300.38;5049480;28;20036;-78
2022/11/30 02:33:32;;;;;;;46.30;18.45;;;;;;;0.11;77.11;99302.03;5050163;28;20028;-78
2022/11/30 02:35:59;;;;;;;44.30;17.77;;;;;;;0.11;76.82;99303.91;5049007;28;20021;-78
2022/11/30 02:38:26;;;;;;;47.88;20.30;;;;;;;0.12;76.70;99302.88;5048509;28;20481;-78
2022/11/30 02:40:52;;;;;;;50.80;19.73;;;;;;;0.11;77.22;99298.53;5050349;28;20037;-77
2022/11/30 02:43:21;;;;;;;49.08;18.80;;;;;;;0.10;77.16;99302.25;5050238;28;20025;-78
2022/11/30 02:46:00;;;;;;;51.60;19.27;;;;;;;0.08;76.57;99305.16;5049968;28;20067;-78
2022/11/30 02:48:37;;;;;;;51.90;20.13;;;;;;;0.09;76.94;99312.22;5049024;28;20056;-78
2022/11/30 02:51:06;;;;;;;52.53;20.00;;;;;;;0.12;77.03;99313.69;5048401;28;20512;-78
2022/11/30 02:53:32;;;;;;;52.50;20.25;;;;;;;0.16;76.93;99323.03;5048558;28;20112;-78
2022/11/30 02:55:57;;;;;;;50.80;17.92;;;;;;;0.19;77.25;99324.47;5049213;28;20203;-78
2022/11/30 02:58:23;;;;;;;46.30;19.88;;;;;;;0.19;77.08;99317.22;5048924;28;20111;-78
2022/11/30 03:00:49;;;;;;;43.80;17.90;;;;;;;0.16;77.24;99328.41;5049942;28;20100;-77
2022/11/30 03:03:14;;;;;;;44.60;19.30;;;;;;;0.13;77.07;99326.94;5049048;28;20056;-78
2022/11/30 03:05:39;;;;;;;40.90;17.58;;;;;;;0.13;77.19;99326.94;5050393;28;20477;-78
2022/11/30 03:08:05;;;;;;;43.60;17.42;;;;;;;0.13;76.55;99326.13;5049447;28;20060;-78
2022/11/30 03:10:30;;;;;;;46.80;19.42;;;;;;;0.16;76.88;99327.56;5050407;28;20040;-78
2022/11/30 03:12:57;;;;;;;41.67;17.55;;;;;;;0.16;76.91;99333.81;5049229;28;20535;-78
2022/11/30 03:15:23;;;;;;;44.53;18.48;;;;;;;0.17;76.89;99340.03;5049407;28;20075;-78
2022/11/30 03:17:48;;;;;;;46.63;18.45;;;;;;;0.18;76.90;99336.28;5049345;28;20029;-78
2022/11/30 03:20:13;;;;;;;45.67;17.88;;;;;;;0.18;76.83;99336.28;5048290;28;20087;-78
2022/11/30 03:22:39;;;;;;;48.42;19.60;;;;;;;0.20;76.80;99347.69;5048512;28;20078;-78
2022/11/30 03:25:05;;;;;;;47.97;18.08;;;;;;;0.18;76.70;99345.22;5049290;28;20029;-78
2022/11/30 03:27:30;;;;;;;48.80;19.02;;;;;;;0.18;77.14;99347.94;5049562;28;20022;-78
2022/11/30 03:29:55;;;;;;;44.55;18.23;;;;;;;0.16;76.92;99341.06;5048911;28;20469;-78
2022/11/30 03:32:21;;;;;;;46.05;18.77;;;;;;;0.13;76.80;99347.72;5049210;28;20033;-78
2022/11/30 03:34:46;;;;;;;46.78;19.27;;;;;;;0.07;77.00;99349.34;5048351;28;20474;-78
2022/11/30 03:37:11;;;;;;;47.90;19.67;;;;;;;0.04;76.81;99343.53;5049285;28;20025;-78
2022/11/30 03:39:37;;;;;;;47.25;19.27;;;;;;;0.00;77.14;99345.84;5048779;28;20029;-78
2022/11/30 03:42:02;;;;;;;48.83;19.55;;;;;;;0.01;76.73;99347.47;5049486;28;20381;-78
2022/11/30 03:44:28;;;;;;;44.88;17.88;;;;;;;0.00;77.08;99345.84;5050144;28;20031;-78
2022/11/30 03:46:54;;;;;;;47.60;18.75;;;;;;;-0.01;77.09;99347.69;5052280;28;20437;-78
2022/11/30 03:49:19;;;;;;;45.30;17.40;;;;;;;0.04;76.76;99347.06;5052896;28;20036;-78
2022/11/30 03:51:45;;;;;;;50.58;19.25;;;;;;;0.03;77.12;99352.66;5052053;28;20529;-78
2022/11/30 03:54:10;;;;;;;50.47;20.33;;;;;;;0.05;77.17;99350.59;5049430;28;20021;-78
2022/11/30 03:56:35;;;;;;;49.50;19.63;;;;;;;0.05;77.25;99343.31;5052235;28;20049;-77
2022/11/30 03:59:01;;;;;;;47.80;19.17;;;;;;;0.06;76.93;99352.25;5052219;28;20041;-78
2022/11/30 04:01:26;;;;;;;51.90;21.20;;;;;;;0.04;77.20;99349.75;5052801;28;20063;-78
2022/11/30 04:03:53;;;;;;;53.08;20.17;;;;;;;0.03;77.13;99360.75;5053398;28;20021;-78
2022/11/30 04:06:20;;;;;;;49.67;18.92;;;;;;;-0.01;76.69;99355.78;5052941;28;20508;-78
2022/11/30 04:08:47;;;;;;;49.75;19.02;;;;;;;-0.01;76.58;99352.25;5052643;28;20025;-78
2022/11/30 04:11:13;;;;;;;53.75;20.85;;;;;;;-0.04;76.75;99350.78;5052860;28;20377;-78
2022/11/30 04:13:39;;;;;;;55.28;20.63;;;;;;;-0.06;77.17;99352.84;5051300;28;20028;-78
2022/11/30 04:16:05;;;;;;;54.92;20.63;;;;;;;-0.05;77.40;99351.81;5051747;28;20056;-78
2022/11/30 04:18:32;;;;;;;51.50;19.30;;;;;;;-0.04;77.35;99350.78;5052895;28;20080;-78
2022/11/30 04:20:59;;;;;;;54.20;20.20;;;;;;;-0.01;77.55;99353.06;5052879;28;20032;-78
2022/11/30 04:23:28;;;;;;;54.40;21.23;;;;;;;0.06;77.02;99354.97;5052778;28;20082;-78
2022/11/30 04:25:54;;;;;;;57.53;21.92;;;;;;;0.08;76.77;99359.09;5050753;28;20017;-78
2022/11/30 04:28:19;;;;;;;58.75;22.25;;;;;;;0.10;76.96;99350.81;5051100;28;20055;-78
2022/11/30 04:30:45;;;;;;;57.60;22.77;;;;;;;0.12;77.19;99348.75;5052107;28;20037;-78
2022/11/30 04:33:13;;;;;;;59.53;21.98;;;;;;;0.14;77.41;99352.06;5051381;28;20060;-78
2022/11/30 04:35:40;;;;;;;56.88;21.88;;;;;;;0.14;76.87;99347.50;5053709;28;20028;-78
2022/11/30 04:38:06;;;;;;;57.03;22.08;;;;;;;0.16;77.21;99351.84;5053256;28;20025;-78
2022/11/30 04:40:31;;;;;;;57.47;22.48;;;;;;;0.13;76.53;99353.91;5051785;28;20456;-78
2022/11/30 04:42:56;;;;;;;58.60;21.48;;;;;;;0.11;76.80;99356.00;5053269;28;20034;-78
2022/11/30 04:45:22;;;;;;;56.03;21.58;;;;;;;0.10;77.15;99353.50;5051987;28;20032;-78
2022/11/30 04:47:47;;;;;;;58.13;21.98;;;;;;;0.07;77.20;99354.75;5053369;28;20167;-78
2022/11/30 04:50:13;;;;;;;57.25;20.92;;;;;;;0.06;76.99;99355.78;5052067;28;20025;-78
2022/11/30 04:52:38;;;;;;;57.80;21.83;;;;;;;0.09;77.47;99365.34;5051220;28;20083;-78
2022/11/30 04:55:04;;;;;;;53.38;20.77;;;;;;;0.07;76.71;99362.00;5052811;28;20025;-78
2022/11/30 04:57:30;;;;;;;55.05;21.75;;;;;;;0.09;77.06;99359.94;5052997;28;20052;-78
2022/11/30 04:59:56;;;;;;;59.40;22.23;;;;;;;0.07;77.01;99368.22;5051436;28;20036;-78
2022/11/30 05:02:21;;;;;;;56.83;21.40;;;;;;;0.06;77.06;99371.13;5052277;28;20029;-78
2022/11/30 05:04:46;;;;;;;59.65;22.25;;;;;;;0.08;76.89;99377.16;5051616;28;20385;-78
2022/11/30 05:07:12;;;;;;;56.63;22.33;;;;;;;0.10;76.91;99375.09;5053085;28;20012;-78
2022/11/30 05:09:37;;;;;;;51.42;18.95;;;;;;;0.13;76.75;99380.91;5052743;28;20029;-78
2022/11/30 05:12:03;;;;;;;55.72;21.20;;;;;;;0.11;76.56;99382.16;5050809;28;20017;-78
2022/11/30 05:14:28;;;;;;;54.85;20.90;;;;;;;0.13;77.28;99380.09;5052354;28;20025;-78
2022/11/30 05:16:54;;;;;;;54.50;20.30;;;;;;;0.12;76.99;99383.81;5052635;28;20532;-78
2022/11/30 05:19:19;;;;;;;52.95;20.60;;;;;;;0.08;76.59;99388.78;5051184;28;20029;-78
2022/11/30 05:21:45;;;;;;;57.95;21.15;;;;;;;0.05;76.73;99385.66;5050962;28;20032;-78
2022/11/30 05:24:10;;;;;;;57.20;20.42;;;;;;;0.03;77.09;99382.34;5052529;28;20485;-78
2022/11/30 05:26:36;;;;;;;53.20;19.98;;;;;;;0.02;77.36;99386.88;5052376;28;20036;-78
2022/11/30 05:29:05;;;;;;;54.45;20.52;;;;;;;-0.01;77.12;99379.22;5052274;28;20029;-78
2022/11/30 05:31:32;;;;;;;57.10;20.75;;;;;;;-0.03;76.69;99381.31;5052347;28;20033;-78
2022/11/30 05:33:58;;;;;;;59.00;21.42;;;;;;;-0.06;76.79;99379.81;5050403;28;20025;-78
2022/11/30 05:36:23;;;;;;;56.67;19.95;;;;;;;-0.09;76.99;99379.41;5052291;28;20378;-78
2022/11/30 05:38:49;;;;;;;53.95;22.08;;;;;;;-0.09;77.01;99382.09;5052129;28;20455;-78
2022/11/30 05:41:14;;;;;;;59.17;21.90;;;;;;;-0.08;77.17;99389.97;5052284;28;20021;-77
2022/11/30 05:43:40;;;;;;;58.22;21.95;;;;;;;-0.07;77.18;99386.25;5051441;28;20043;-78
2022/11/30 05:46:07;;;;;;;59.10;21.70;;;;;;;-0.05;77.14;99392.28;5052295;28;20025;-78
2022/11/30 05:48:33;;;;;;;60.08;22.60;;;;;;;-0.05;76.93;99389.56;5051518;28;20111;-78
2022/11/30 05:51:14;;;;;;;50.33;19.67;;;;;;;-0.05;77.07;99383.38;5052332;28;20027;-78
2022/11/30 05:53:40;;;;;;;55.15;21.35;;;;;;;-0.06;77.07;99384.41;5051191;28;20025;-79
2022/11/30 05:56:09;;;;;;;53.38;20.58;;;;;;;-0.11;77.18;99389.56;5051927;28;20025;-78
2022/11/30 05:58:35;;;;;;;54.03;20.88;;;;;;;-0.16;76.80;99391.00;5051566;28;20036;-78
2022/11/30 06:01:00;;;;;;;59.58;21.65;;;;;;;-0.17;76.80;99393.88;5051805;28;20025;-78
2022/11/30 06:03:28;;;;;;;51.67;20.70;;;;;;;-0.18;77.03;99403.84;5051161;28;20033;-78
2022/11/30 06:05:53;;;;;;;53.38;21.58;;;;;;;-0.19;76.87;99404.03;5051694;28;20082;-78
2022/11/30 06:08:19;;;;;;;56.08;21.17;;;;;;;-0.24;76.73;99411.94;5050814;28;20028;-78
2022/11/30 06:10:44;;;;;;;56.55;20.42;;;;;;;-0.27;77.22;99405.06;5051671;28;20531;-78
2022/11/30 06:13:10;;;;;;;53.58;19.60;;;;;;;-0.27;77.25;99406.94;5050846;28;20069;-78
2022/11/30 06:15:37;;;;;;;56.58;19.83;;;;;;;-0.28;77.18;99411.50;5051516;28;20033;-78
2022/11/30 06:18:03;;;;;;;56.50;20.55;;;;;;;-0.25;77.06;99407.56;5051424;28;20033;-78
2022/11/30 06:20:29;;;;;;;54.15;20.55;;;;;;;-0.25;77.21;99410.28;5051123;28;20049;-78
2022/11/30 06:22:54;;;;;;;54.90;20.20;;;;;;;-0.25;77.18;99413.78;5051014;28;20366;-78
2022/11/30 06:25:20;;;;;;;52.65;18.45;;;;;;;-0.26;76.79;99405.91;5050770;28;20419;-78
2022/11/30 06:27:45;;;;;;;52.85;19.67;;;;;;;-0.24;76.75;99417.31;5051207;28;20021;-78
2022/11/30 06:30:11;;;;;;;67.47;27.85;;;;;;;-0.24;77.31;99406.53;5051113;28;20036;-78
2022/11/30 06:32:37;;;;;;;61.28;27.50;;;;;;;-0.22;77.29;99415.25;5051017;28;20024;-78
2022/11/30 06:35:02;;;;;;;58.53;22.55;;;;;;;-0.19;76.87;99420.22;5050796;28;20604;-78
2022/11/30 06:37:28;;;;;;;57.45;24.52;;;;;;;-0.18;77.27;99416.50;5051045;28;20033;-78
2022/11/30 06:39:53;;;;;;;62.13;24.98;;;;;;;-0.18;77.20;99411.94;5050881;28;20037;-78
2022/11/30 06:42:20;;;;;;;60.45;24.27;;;;;;;-0.18;76.93;99417.34;5051074;28;20024;-78
2022/11/30 06:44:45;;;;;;;69.35;28.33;;;;;;;-0.16;77.07;99411.72;5050206;28;20025;-78
2022/11/30 06:47:11;;;;;;;91.10;45.95;;;;;;;-0.15;77.27;99410.69;5049779;28;20401;-78
2022/11/30 06:49:37;;;;;;;79.60;32.42;;;;;;;-0.09;77.50;99417.16;5050741;28;20448;-78
2022/11/30 06:52:02;;;;;;;103.15;57.33;;;;;;;-0.07;77.16;99425.88;5050570;28;20183;-78
2022/11/30 06:54:28;;;;;;;138.05;60.13;;;;;;;-0.05;76.93;99427.34;5050176;28;20423;-78
2022/11/30 06:56:55;;;;;;;122.97;56.65;;;;;;;-0.05;76.86;99421.13;5050680;28;20035;-78
2022/11/30 06:59:20;;;;;;;98.78;46.97;;;;;;;-0.05;77.31;99421.94;5050440;28;20466;-78
2022/11/30 07:01:47;;;;;;;72.05;28.38;;;;;;;-0.05;76.80;99421.94;5050839;28;20040;-78
2022/11/30 07:04:12;;;;;;;66.85;27.67;;;;;;;-0.05;76.79;99427.34;5050759;28;20029;-78
2022/11/30 07:06:38;;;;;;;94.63;34.33;;;;;;;-0.08;76.74;99425.03;5050373;28;20048;-78
2022/11/30 07:09:03;;;;;;;80.13;28.08;;;;;;;-0.10;76.66;99418.19;5050077;28;20025;-78
2022/11/30 07:11:28;;;;;;;73.97;25.13;;;;;;;-0.17;77.12;99419.00;5050802;28;20047;-78
2022/11/30 07:13:54;;;;;;;72.75;26.15;;;;;;;-0.22;76.84;99418.78;5050440;28;20485;-78
2022/11/30 07:16:19;;;;;;;61.47;21.98;;;;;;;-0.21;76.74;99422.31;5050158;28;20112;-78
2022/11/30 07:18:45;;;;;;;92.25;29.98;;;;;;;-0.19;77.10;99425.63;5049401;28;20398;-78
2022/11/30 07:21:10;;;;;;;77.15;27.52;;;;;;;-0.20;77.13;99426.66;5050447;28;20048;-78
2022/11/30 07:26:21;;;;;;;99.97;36.60;;;;;;;-0.20;76.99;99423.94;5050220;28;20082;-78
2022/11/30 07:28:46;;;;;;;79.63;30.02;;;;;;;-0.21;77.05;99427.72;5050248;28;20037;-78
2022/11/30 07:31:13;;;;;;;82.75;30.83;;;;;;;-0.21;76.98;99425.84;5048905;28;20024;-78
2022/11/30 07:33:38;;;;;;;75.60;30.63;;;;;;;-0.20;77.30;99422.09;5050386;28;20396;-78
2022/11/30 07:36:04;;;;;;;66.20;26.55;;;;;;;-0.18;77.08;99420.03;5049905;28;20090;-78
2022/11/30 07:38:30;;;;;;;82.15;30.65;;;;;;;-0.16;77.50;99425.22;5049806;28;20040;-78
2022/11/30 07:40:56;;;;;;;67.50;26.60;;;;;;;-0.14;76.95;99414.25;5050562;28;20036;-79
2022/11/30 07:43:22;;;;;;;87.38;34.75;;;;;;;-0.15;77.10;99413.41;5048788;28;20032;-78
2022/11/30 07:45:54;;;;;;;80.30;32.85;;;;;;;-0.16;77.03;99407.19;5050058;28;20025;-78
2022/11/30 07:48:20;;;;;;;72.47;29.13;;;;;;;-0.14;77.08;99398.06;5049652;28;20085;-78
2022/11/30 07:50:47;;;;;;;61.55;24.13;;;;;;;-0.12;77.05;99396.00;5050217;28;20060;-78
2022/11/30 07:53:14;;;;;;;56.47;23.80;;;;;;;-0.13;77.32;99400.53;5048884;28;20486;-78
2022/11/30 07:55:39;;;;;;;59.00;24.02;;;;;;;-0.11;77.13;99401.16;5050299;28;20025;-78
2022/11/30 07:58:05;;;;;;;77.65;27.95;;;;;;;-0.12;77.26;99415.69;5050110;28;20021;-78
2022/11/30 08:00:30;;;;;;;95.78;34.42;;;;;;;-0.11;77.02;99428.13;5047926;28;20025;-79
2022/11/30 08:02:56;;;;;;;80.25;29.02;;;;;;;-0.11;77.14;99433.53;5051485;28;20546;-79
2022/11/30 08:05:22;;;;;;;57.55;23.15;;;;;;;-0.11;77.00;99413.84;5051796;28;20051;-79
2022/11/30 08:07:52;;;;;;;66.38;25.90;;;;;;;-0.15;76.89;99421.47;5044721;28;20060;-76
2022/11/30 08:10:19;;;;;;;87.20;32.53;;;;;;;-0.12;77.23;99431.06;5043535;28;20107;-77
2022/11/30 08:12:46;;;;;;;74.55;26.50;;;;;;;-0.12;77.04;99425.66;5044900;28;20021;-76
2022/11/30 08:15:11;;;;;;;79.20;28.55;;;;;;;-0.14;77.19;99425.03;5045949;28;20032;-76
2022/11/30 08:17:37;;;;;;;60.10;23.88;;;;;;;-0.13;77.03;99424.81;5044987;28;20367;-77
2022/11/30 08:20:03;;;;;;;58.63;23.63;;;;;;;-0.10;76.86;99426.28;5048154;28;20036;-76
2022/11/30 08:22:28;;;;;;;72.63;27.98;;;;;;;-0.07;77.29;99431.28;5047618;28;20078;-77
2022/11/30 08:24:54;;;;;;;81.07;32.17;;;;;;;-0.04;77.22;99437.09;5044882;28;20056;-74
2022/11/30 08:27:19;;;;;;;76.95;30.38;;;;;;;0.01;77.17;99435.66;5044673;28;20061;-77
2022/11/30 08:29:44;;;;;;;64.72;25.25;;;;;;;0.05;77.31;99439.59;5046733;28;20428;-75
2022/11/30 08:32:10;;;;;;;77.85;33.72;;;;;;;0.07;76.94;99437.53;5050340;28;20036;-75
2022/11/30 08:34:35;;;;;;;68.13;28.05;;;;;;;0.08;77.31;99440.03;5048869;28;20108;-74
2022/11/30 08:37:00;;;;;;;71.85;29.90;;;;;;;0.12;76.72;99437.75;5049210;28;20029;-74
2022/11/30 08:39:27;;;;;;;114.07;44.08;;;;;;;0.18;77.01;99445.03;5048002;28;20065;-75
2022/11/30 08:41:52;;;;;;;66.57;28.63;;;;;;;0.20;77.23;99436.75;5052572;28;20488;-75
2022/11/30 08:44:18;;;;;;;56.03;25.17;;;;;;;0.22;76.84;99445.47;5049226;28;20030;-74
2022/11/30 08:46:43;;;;;;;63.67;30.27;;;;;;;0.22;76.92;99448.97;5051773;28;20571;-75
2022/11/30 08:49:09;;;;;;;97.88;42.15;;;;;;;0.22;77.12;99446.28;5049557;28;20029;-74
2022/11/30 08:51:34;;;;;;;109.10;40.47;;;;;;;0.22;77.31;99446.28;5049507;28;20489;-74
2022/11/30 08:54:00;;;;;;;77.90;30.30;;;;;;;0.24;76.66;99451.47;5049801;28;20039;-74
2022/11/30 08:56:25;;;;;;;72.65;30.00;;;;;;;0.24;76.97;99451.47;5049643;28;20404;-75
2022/11/30 08:58:51;;;;;;;58.08;23.63;;;;;;;0.23;76.65;99457.91;5049957;28;20466;-75
2022/11/30 09:01:25;;;;;;;58.13;22.80;;;;;;;0.22;76.82;99448.97;5048665;28;20021;-75
2022/11/30 09:03:54;;;;;;;53.63;21.95;;;;;;;0.26;76.79;99452.94;5050868;28;20027;-74
2022/11/30 09:06:24;;;;;;;56.50;21.63;;;;;;;0.28;76.93;99450.84;5047762;28;20067;-76
2022/11/30 09:08:54;;;;;;;55.97;23.13;;;;;;;0.31;77.12;99451.50;5047713;28;20029;-74
2022/11/30 09:11:26;;;;;;;54.47;22.23;;;;;;;0.33;77.24;99454.81;5047779;28;20052;-74
2022/11/30 09:13:53;;;;;;;57.30;21.70;;;;;;;0.37;77.11;99450.69;5047904;28;20477;-76
2022/11/30 09:16:19;;;;;;;51.60;20.92;;;;;;;0.41;76.60;99457.31;5047453;28;20021;-75
2022/11/30 09:18:46;;;;;;;58.72;24.00;;;;;;;0.42;77.23;99453.59;5044314;28;20063;-77
2022/11/30 09:21:14;;;;;;;57.03;22.65;;;;;;;0.44;77.23;99452.34;5046126;28;20037;-75
2022/11/30 09:23:40;;;;;;;48.63;21.27;;;;;;;0.49;76.90;99456.28;5050824;28;20028;-75
2022/11/30 09:26:08;;;;;;;54.47;19.85;;;;;;;0.49;76.39;99454.44;5050819;28;20549;-77
2022/11/30 09:28:35;;;;;;;50.15;20.52;;;;;;;0.53;76.45;99461.09;5056252;28;20028;-79
2022/11/30 09:31:06;;;;;;;53.45;22.00;;;;;;;0.54;76.73;99454.66;5053897;28;20037;-79
2022/11/30 09:33:33;;;;;;;59.45;24.70;;;;;;;0.57;76.77;99459.66;5053932;28;20112;-80
2022/11/30 09:36:01;;;;;;;57.42;23.83;;;;;;;0.58;76.63;99449.66;5054713;28;20024;-81
2022/11/30 09:38:26;;;;;;;58.38;24.88;;;;;;;0.59;76.69;99452.19;5052413;28;20408;-80
2022/11/30 09:41:00;;;;;;;61.65;25.45;;;;;;;0.57;76.51;99450.69;5047907;28;20048;-80
2022/11/30 09:43:44;;;;;;;49.67;21.73;;;;;;;0.56;76.73;99454.44;5046175;28;20039;-80
2022/11/30 09:46:10;;;;;;;52.40;21.08;;;;;;;0.56;76.46;99452.59;5048465;28;20548;-79
2022/11/30 09:49:11;;;;;;;48.63;21.67;;;;;;;0.51;76.58;99449.66;5050223;28;20029;-78
2022/11/30 09:51:45;;;;;;;47.58;20.02;;;;;;;0.55;76.45;99458.16;5007377;28;20400;-81
2022/11/30 09:54:34;;;;;;;48.90;21.65;;;;;;;0.55;76.50;99455.47;5043413;28;20815;-80
2022/11/30 09:57:08;;;;;;;54.38;22.80;;;;;;;0.57;76.87;99462.34;5050042;28;20066;-79
2022/11/30 09:59:36;;;;;;;51.92;22.50;;;;;;;0.57;76.46;99462.34;5049804;28;20044;-79
2022/11/30 10:02:14;;;;;;;49.72;20.88;;;;;;;0.58;76.77;99461.31;5049505;28;20025;-78
2022/11/30 10:04:39;;;;;;;47.25;21.40;;;;;;;0.58;76.28;99458.63;5049834;28;20032;-78
2022/11/30 10:07:29;;;;;;;49.22;21.63;;;;;;;0.60;76.67;99461.09;5049554;28;20418;-77
2022/11/30 10:10:19;;;;;;;65.47;27.07;;;;;;;0.62;76.16;99461.72;5049786;28;20028;-79
2022/11/30 10:13:19;;;;;;;73.20;30.75;;;;;;;0.59;76.47;99457.56;5048204;28;20275;-79
2022/11/30 10:15:53;;;;;;;58.05;26.15;;;;;;;0.62;76.74;99450.06;5049811;28;20032;-80
2022/11/30 10:18:39;;;;;;;58.80;26.35;;;;;;;0.64;76.46;99450.69;5049588;28;20047;-78
2022/11/30 10:21:20;;;;;;;58.53;25.58;;;;;;;0.63;76.29;99451.72;5049489;28;20028;-78
2022/11/30 10:24:13;;;;;;;58.30;27.40;;;;;;;0.65;76.72;99445.09;5048946;28;20033;-80
2022/11/30 10:26:44;;;;;;;55.80;27.40;;;;;;;0.67;76.67;99450.28;5049569;28;20490;-78
2022/11/30 10:29:13;;;;;;;52.83;22.13;;;;;;;0.69;75.95;99453.63;5047903;28;20032;-78
2022/11/30 10:31:40;;;;;;;50.13;22.77;;;;;;;0.72;76.48;99445.94;5049080;28;20037;-78
2022/11/30 10:34:22;;;;;;;53.22;23.67;;;;;;;0.73;76.79;99444.06;5047751;28;20029;-78
2022/11/30 10:36:57;;;;;;;55.33;26.60;;;;;;;0.76;76.51;99437.44;5049130;28;20029;-78
2022/11/30 10:39:43;;;;;;;169.55;71.35;;;;;;;0.77;76.68;99436.41;5049170;28;20125;-80
2022/11/30 10:42:29;;;;;;;138.18;60.28;;;;;;;0.79;76.30;99435.13;5049216;28;20029;-78
2022/11/30 10:45:10;;;;;;;186.07;56.65;;;;;;;0.83;76.47;99440.94;5049089;28;20029;-75
2022/11/30 10:47:41;;;;;;;259.25;60.78;;;;;;;0.87;76.30;99442.19;5050581;28;20047;-78
2022/11/30 10:50:12;;;;;;;318.52;72.97;;;;;;;0.88;76.16;99439.28;5050335;28;20533;-77
2022/11/30 10:52:45;;;;;;;303.15;70.00;;;;;;;0.91;76.62;99445.31;5049160;28;20520;-76
2022/11/30 10:55:18;;;;;;;262.73;60.85;;;;;;;0.94;76.47;99440.31;5048288;28;20154;-77
2022/11/30 10:57:47;;;;;;;177.15;45.08;;;;;;;0.99;76.58;99445.94;5049282;28;20025;-77
2022/11/30 11:00:15;;;;;;;117.10;35.80;;;;;;;1.03;76.21;99449.88;5050248;28;20036;-77
2022/11/30 11:02:45;;;;;;;163.10;51.45;;;;;;;1.06;76.40;99450.50;5049726;28;20029;-78
2022/11/30 11:05:27;;;;;;;90.93;33.05;;;;;;;1.07;75.88;99449.47;5050246;28;20028;-77
2022/11/30 11:08:20;;;;;;;59.85;25.02;;;;;;;1.08;76.10;99453.81;5050348;28;20033;-81
2022/11/30 11:10:50;;;;;;;83.47;29.75;;;;;;;1.08;75.83;99449.22;5048107;28;20119;-78
2022/11/30 11:13:18;;;;;;;60.70;25.00;;;;;;;1.08;75.98;99449.22;5046685;28;20044;-77
2022/11/30 11:16:04;;;;;;;54.05;22.75;;;;;;;1.03;75.94;99449.88;5047900;28;20047;-76
2022/11/30 11:18:31;;;;;;;53.55;23.65;;;;;;;1.05;76.38;99446.94;5047328;28;20028;-77
2022/11/30 11:20:59;;;;;;;53.78;21.23;;;;;;;1.06;76.01;99451.31;5047085;28;20044;-75
2022/11/30 11:23:38;;;;;;;47.80;20.23;;;;;;;1.08;76.20;99443.84;5044572;28;20555;-76
2022/11/30 11:26:05;;;;;;;51.72;23.08;;;;;;;1.09;75.71;99437.38;5046261;28;20052;-75
2022/11/30 11:28:33;;;;;;;50.10;22.63;;;;;;;1.12;76.22;99436.97;5045885;28;20040;-75